sensor_id;sensor_type;location;lat;lon;timestamp;P1;durP1;ratioP1;P2;durP2;ratioP2
23163;SDS011;31429;42.674;23.350;2024-02-04T00:00:43;5.80;;;4.43;;
23163;SDS011;31429;42.674;23.350;2024-02-04T00:01:46;6.70;;;5.00;;
23163;SDS011;31429;42.674;23.350;2024-02-04T00:02:47;4.85;;;4.18;;
23163;SDS011;31429;42.674;23.350;2024-02-04T00:03:47;5.53;;;4.80;;
23163;SDS011;31429;42.674;23.350;2024-02-04T00:04:48;6.27;;;4.80;;
23163;SDS011;31429;42.674;23.350;2024-02-04T00:05:49;6.47;;;4.80;;
23163;SDS011;31429;42.674;23.350;2024-02-04T00:06:50;6.63;;;4.53;;
23163;SDS011;31429;42.674;23.350;2024-02-04T00:07:51;5.30;;;4.80;;
23163;SDS011;31429;42.674;23.350;2024-02-04T00:08:52;5.87;;;4.57;;
23163;SDS011;31429;42.674;23.350;2024-02-04T00:09:52;5.77;;;4.53;;
23163;SDS011;31429;42.674;23.350;2024-02-04T00:10:53;5.63;;;4.97;;
23163;SDS011;31429;42.674;23.350;2024-02-04T00:11:54;6.27;;;4.77;;
23163;SDS011;31429;42.674;23.350;2024-02-04T00:12:55;5.60;;;5.00;;
23163;SDS011;31429;42.674;23.350;2024-02-04T00:13:56;7.00;;;4.67;;
23163;SDS011;31429;42.674;23.350;2024-02-04T00:14:57;6.28;;;5.15;;
23163;SDS011;31429;42.674;23.350;2024-02-04T00:15:58;6.83;;;5.10;;
23163;SDS011;31429;42.674;23.350;2024-02-04T00:17:00;7.07;;;5.37;;
23163;SDS011;31429;42.674;23.350;2024-02-04T00:18:01;7.10;;;5.03;;
23163;SDS011;31429;42.674;23.350;2024-02-04T00:19:02;8.47;;;5.53;;
23163;SDS011;31429;42.674;23.350;2024-02-04T00:20:03;10.03;;;5.17;;
23163;SDS011;31429;42.674;23.350;2024-02-04T00:21:08;6.15;;;5.32;;
23163;SDS011;31429;42.674;23.350;2024-02-04T00:22:08;5.03;;;4.50;;
23163;SDS011;31429;42.674;23.350;2024-02-04T00:23:09;6.53;;;5.37;;
23163;SDS011;31429;42.674;23.350;2024-02-04T00:24:10;7.77;;;5.63;;
23163;SDS011;31429;42.674;23.350;2024-02-04T00:25:11;8.43;;;4.77;;
23163;SDS011;31429;42.674;23.350;2024-02-04T00:26:12;5.90;;;5.00;;
23163;SDS011;31429;42.674;23.350;2024-02-04T00:27:12;6.07;;;4.83;;
23163;SDS011;31429;42.674;23.350;2024-02-04T00:28:13;7.27;;;6.10;;
23163;SDS011;31429;42.674;23.350;2024-02-04T00:29:14;6.13;;;5.53;;
23163;SDS011;31429;42.674;23.350;2024-02-04T00:30:15;6.07;;;5.23;;
23163;SDS011;31429;42.674;23.350;2024-02-04T00:31:16;5.73;;;4.80;;
23163;SDS011;31429;42.674;23.350;2024-02-04T00:32:19;6.32;;;5.40;;
23163;SDS011;31429;42.674;23.350;2024-02-04T00:33:19;6.53;;;5.45;;
23163;SDS011;31429;42.674;23.350;2024-02-04T00:34:20;6.57;;;5.40;;
23163;SDS011;31429;42.674;23.350;2024-02-04T00:35:21;8.70;;;5.67;;
23163;SDS011;31429;42.674;23.350;2024-02-04T00:36:22;7.53;;;5.63;;
23163;SDS011;31429;42.674;23.350;2024-02-04T00:37:22;7.60;;;5.53;;
23163;SDS011;31429;42.674;23.350;2024-02-04T00:38:23;6.00;;;5.40;;
23163;SDS011;31429;42.674;23.350;2024-02-04T00:39:24;6.70;;;5.40;;
23163;SDS011;31429;42.674;23.350;2024-02-04T00:40:25;6.00;;;5.40;;
23163;SDS011;31429;42.674;23.350;2024-02-04T00:41:26;7.65;;;5.43;;
23163;SDS011;31429;42.674;23.350;2024-02-04T00:42:27;6.70;;;5.20;;
23163;SDS011;31429;42.674;23.350;2024-02-04T00:43:28;5.50;;;5.00;;
23163;SDS011;31429;42.674;23.350;2024-02-04T00:44:29;8.93;;;5.60;;
23163;SDS011;31429;42.674;23.350;2024-02-04T00:45:30;6.60;;;5.00;;
23163;SDS011;31429;42.674;23.350;2024-02-04T00:46:30;6.47;;;5.27;;
23163;SDS011;31429;42.674;23.350;2024-02-04T00:47:33;7.00;;;5.80;;
23163;SDS011;31429;42.674;23.350;2024-02-04T00:48:33;6.70;;;5.07;;
23163;SDS011;31429;42.674;23.350;2024-02-04T00:49:34;6.93;;;4.77;;
23163;SDS011;31429;42.674;23.350;2024-02-04T00:50:35;6.03;;;5.43;;
23163;SDS011;31429;42.674;23.350;2024-02-04T00:51:36;5.47;;;4.97;;
23163;SDS011;31429;42.674;23.350;2024-02-04T00:52:38;5.93;;;5.33;;
23163;SDS011;31429;42.674;23.350;2024-02-04T00:53:39;6.35;;;5.00;;
23163;SDS011;31429;42.674;23.350;2024-02-04T00:54:40;6.80;;;4.87;;
23163;SDS011;31429;42.674;23.350;2024-02-04T00:55:40;5.60;;;5.00;;
23163;SDS011;31429;42.674;23.350;2024-02-04T00:56:41;5.97;;;5.23;;
23163;SDS011;31429;42.674;23.350;2024-02-04T00:57:42;7.90;;;5.10;;
23163;SDS011;31429;42.674;23.350;2024-02-04T00:58:43;6.07;;;5.23;;
23163;SDS011;31429;42.674;23.350;2024-02-04T00:59:44;5.40;;;4.50;;
23163;SDS011;31429;42.674;23.350;2024-02-04T01:00:44;6.30;;;4.57;;
23163;SDS011;31429;42.674;23.350;2024-02-04T01:01:45;6.27;;;4.70;;
23163;SDS011;31429;42.674;23.350;2024-02-04T01:02:47;6.33;;;5.03;;
23163;SDS011;31429;42.674;23.350;2024-02-04T01:03:48;5.35;;;4.85;;
23163;SDS011;31429;42.674;23.350;2024-02-04T01:04:49;7.03;;;5.00;;
23163;SDS011;31429;42.674;23.350;2024-02-04T01:05:51;6.82;;;5.22;;
23163;SDS011;31429;42.674;23.350;2024-02-04T01:06:52;5.83;;;5.10;;
23163;SDS011;31429;42.674;23.350;2024-02-04T01:07:53;6.73;;;4.90;;
23163;SDS011;31429;42.674;23.350;2024-02-04T01:08:53;5.57;;;5.07;;
23163;SDS011;31429;42.674;23.350;2024-02-04T01:09:54;5.80;;;4.23;;
23163;SDS011;31429;42.674;23.350;2024-02-04T01:10:55;5.30;;;4.80;;
23163;SDS011;31429;42.674;23.350;2024-02-04T01:11:56;6.70;;;4.90;;
23163;SDS011;31429;42.674;23.350;2024-02-04T01:12:57;6.53;;;4.67;;
23163;SDS011;31429;42.674;23.350;2024-02-04T01:13:57;7.17;;;5.17;;
23163;SDS011;31429;42.674;23.350;2024-02-04T01:14:58;6.57;;;4.63;;
23163;SDS011;31429;42.674;23.350;2024-02-04T01:15:59;5.93;;;4.93;;
23163;SDS011;31429;42.674;23.350;2024-02-04T01:17:00;5.10;;;4.60;;
23163;SDS011;31429;42.674;23.350;2024-02-04T01:18:02;8.23;;;4.80;;
23163;SDS011;31429;42.674;23.350;2024-02-04T01:19:03;8.82;;;5.10;;
23163;SDS011;31429;42.674;23.350;2024-02-04T01:20:04;7.07;;;5.17;;
23163;SDS011;31429;42.674;23.350;2024-02-04T01:21:06;5.18;;;4.70;;
23163;SDS011;31429;42.674;23.350;2024-02-04T01:22:08;5.97;;;4.70;;
23163;SDS011;31429;42.674;23.350;2024-02-04T01:23:09;6.03;;;4.73;;
23163;SDS011;31429;42.674;23.350;2024-02-04T01:24:10;5.10;;;4.60;;
23163;SDS011;31429;42.674;23.350;2024-02-04T01:25:11;4.93;;;4.47;;
23163;SDS011;31429;42.674;23.350;2024-02-04T01:26:11;8.13;;;5.20;;
23163;SDS011;31429;42.674;23.350;2024-02-04T01:27:12;10.20;;;4.63;;
23163;SDS011;31429;42.674;23.350;2024-02-04T01:28:13;5.37;;;4.80;;
23163;SDS011;31429;42.674;23.350;2024-02-04T01:29:14;5.83;;;4.83;;
23163;SDS011;31429;42.674;23.350;2024-02-04T01:30:15;6.23;;;4.70;;
23163;SDS011;31429;42.674;23.350;2024-02-04T01:31:15;5.03;;;4.53;;
23163;SDS011;31429;42.674;23.350;2024-02-04T01:32:16;8.90;;;4.80;;
23163;SDS011;31429;42.674;23.350;2024-02-04T01:33:18;6.70;;;5.10;;
23163;SDS011;31429;42.674;23.350;2024-02-04T01:34:19;7.57;;;5.78;;
23163;SDS011;31429;42.674;23.350;2024-02-04T01:35:20;6.60;;;5.60;;
23163;SDS011;31429;42.674;23.350;2024-02-04T01:36:21;8.43;;;5.00;;
23163;SDS011;31429;42.674;23.350;2024-02-04T01:37:21;7.70;;;5.40;;
23163;SDS011;31429;42.674;23.350;2024-02-04T01:38:23;12.15;;;5.45;;
23163;SDS011;31429;42.674;23.350;2024-02-04T01:39:24;7.17;;;5.73;;
23163;SDS011;31429;42.674;23.350;2024-02-04T01:40:25;6.88;;;5.65;;
23163;SDS011;31429;42.674;23.350;2024-02-04T01:41:26;11.23;;;6.38;;
23163;SDS011;31429;42.674;23.350;2024-02-04T01:42:27;7.95;;;6.07;;
23163;SDS011;31429;42.674;23.350;2024-02-04T01:43:28;10.03;;;7.23;;
23163;SDS011;31429;42.674;23.350;2024-02-04T01:44:30;9.00;;;7.00;;
23163;SDS011;31429;42.674;23.350;2024-02-04T01:45:30;10.57;;;7.40;;
23163;SDS011;31429;42.674;23.350;2024-02-04T01:46:31;11.47;;;8.10;;
23163;SDS011;31429;42.674;23.350;2024-02-04T01:47:32;13.67;;;7.53;;
23163;SDS011;31429;42.674;23.350;2024-02-04T01:48:35;9.73;;;7.65;;
23163;SDS011;31429;42.674;23.350;2024-02-04T01:49:36;13.98;;;8.15;;
23163;SDS011;31429;42.674;23.350;2024-02-04T01:50:38;11.23;;;8.55;;
23163;SDS011;31429;42.674;23.350;2024-02-04T01:51:39;11.00;;;8.45;;
23163;SDS011;31429;42.674;23.350;2024-02-04T01:52:40;10.25;;;8.27;;
23163;SDS011;31429;42.674;23.350;2024-02-04T01:53:44;11.43;;;7.72;;
23163;SDS011;31429;42.674;23.350;2024-02-04T01:54:46;11.25;;;8.43;;
23163;SDS011;31429;42.674;23.350;2024-02-04T01:55:47;9.55;;;7.07;;
23163;SDS011;31429;42.674;23.350;2024-02-04T01:56:49;10.60;;;6.93;;
23163;SDS011;31429;42.674;23.350;2024-02-04T01:57:50;8.73;;;6.53;;
23163;SDS011;31429;42.674;23.350;2024-02-04T01:58:51;10.33;;;6.87;;
23163;SDS011;31429;42.674;23.350;2024-02-04T01:59:52;8.85;;;5.15;;
23163;SDS011;31429;42.674;23.350;2024-02-04T02:00:56;8.05;;;5.50;;
23163;SDS011;31429;42.674;23.350;2024-02-04T02:01:58;6.35;;;5.15;;
23163;SDS011;31429;42.674;23.350;2024-02-04T02:03:01;6.93;;;4.65;;
23163;SDS011;31429;42.674;23.350;2024-02-04T02:04:07;5.90;;;4.55;;
23163;SDS011;31429;42.674;23.350;2024-02-04T02:05:07;6.55;;;4.38;;
23163;SDS011;31429;42.674;23.350;2024-02-04T02:06:09;5.85;;;4.63;;
23163;SDS011;31429;42.674;23.350;2024-02-04T02:07:10;8.25;;;4.43;;
23163;SDS011;31429;42.674;23.350;2024-02-04T02:08:13;6.07;;;4.70;;
23163;SDS011;31429;42.674;23.350;2024-02-04T02:09:13;7.77;;;5.00;;
23163;SDS011;31429;42.674;23.350;2024-02-04T02:10:15;6.53;;;4.75;;
23163;SDS011;31429;42.674;23.350;2024-02-04T02:11:18;8.20;;;4.80;;
23163;SDS011;31429;42.674;23.350;2024-02-04T02:12:22;7.18;;;4.65;;
23163;SDS011;31429;42.674;23.350;2024-02-04T02:13:27;5.03;;;4.35;;
23163;SDS011;31429;42.674;23.350;2024-02-04T02:14:32;6.68;;;4.43;;
23163;SDS011;31429;42.674;23.350;2024-02-04T02:15:36;8.65;;;4.80;;
23163;SDS011;31429;42.674;23.350;2024-02-04T02:16:41;4.40;;;4.00;;
23163;SDS011;31429;42.674;23.350;2024-02-04T02:17:45;4.60;;;4.18;;
23163;SDS011;31429;42.674;23.350;2024-02-04T02:18:52;5.90;;;4.47;;
23163;SDS011;31429;42.674;23.350;2024-02-04T02:19:59;5.40;;;4.28;;
23163;SDS011;31429;42.674;23.350;2024-02-04T02:21:11;4.95;;;4.13;;
23163;SDS011;31429;42.674;23.350;2024-02-04T02:22:26;4.55;;;4.03;;
23163;SDS011;31429;42.674;23.350;2024-02-04T02:23:34;5.32;;;4.05;;
23163;SDS011;31429;42.674;23.350;2024-02-04T02:24:38;4.57;;;4.18;;
23163;SDS011;31429;42.674;23.350;2024-02-04T02:25:42;4.82;;;4.30;;
23163;SDS011;31429;42.674;23.350;2024-02-04T02:26:45;4.30;;;3.90;;
23163;SDS011;31429;42.674;23.350;2024-02-04T02:27:47;5.10;;;4.10;;
23163;SDS011;31429;42.674;23.350;2024-02-04T02:28:49;4.93;;;4.13;;
23163;SDS011;31429;42.674;23.350;2024-02-04T02:29:50;7.47;;;4.47;;
23163;SDS011;31429;42.674;23.350;2024-02-04T02:30:51;4.83;;;4.00;;
23163;SDS011;31429;42.674;23.350;2024-02-04T02:31:51;5.93;;;4.57;;
23163;SDS011;31429;42.674;23.350;2024-02-04T02:32:52;6.03;;;4.10;;
23163;SDS011;31429;42.674;23.350;2024-02-04T02:33:54;5.88;;;4.13;;
23163;SDS011;31429;42.674;23.350;2024-02-04T02:34:54;5.27;;;4.20;;
23163;SDS011;31429;42.674;23.350;2024-02-04T02:35:56;5.70;;;4.47;;
23163;SDS011;31429;42.674;23.350;2024-02-04T02:37:03;4.05;;;3.60;;
23163;SDS011;31429;42.674;23.350;2024-02-04T02:38:14;5.95;;;4.25;;
23163;SDS011;31429;42.674;23.350;2024-02-04T02:39:24;7.20;;;3.92;;
23163;SDS011;31429;42.674;23.350;2024-02-04T02:40:34;4.38;;;3.75;;
23163;SDS011;31429;42.674;23.350;2024-02-04T02:41:38;5.90;;;4.25;;
23163;SDS011;31429;42.674;23.350;2024-02-04T02:42:43;4.75;;;4.25;;
23163;SDS011;31429;42.674;23.350;2024-02-04T02:43:47;6.10;;;3.85;;
23163;SDS011;31429;42.674;23.350;2024-02-04T02:44:50;4.22;;;3.83;;
23163;SDS011;31429;42.674;23.350;2024-02-04T02:45:52;4.97;;;3.83;;
23163;SDS011;31429;42.674;23.350;2024-02-04T02:46:53;5.43;;;3.70;;
23163;SDS011;31429;42.674;23.350;2024-02-04T02:47:56;5.72;;;3.85;;
23163;SDS011;31429;42.674;23.350;2024-02-04T02:48:57;4.20;;;3.67;;
23163;SDS011;31429;42.674;23.350;2024-02-04T02:50:00;4.13;;;3.72;;
23163;SDS011;31429;42.674;23.350;2024-02-04T02:51:00;5.28;;;4.30;;
23163;SDS011;31429;42.674;23.350;2024-02-04T02:52:01;5.57;;;4.30;;
23163;SDS011;31429;42.674;23.350;2024-02-04T02:53:02;5.20;;;4.57;;
23163;SDS011;31429;42.674;23.350;2024-02-04T02:54:03;4.90;;;4.47;;
23163;SDS011;31429;42.674;23.350;2024-02-04T02:55:04;5.70;;;4.00;;
23163;SDS011;31429;42.674;23.350;2024-02-04T02:56:07;4.70;;;4.20;;
23163;SDS011;31429;42.674;23.350;2024-02-04T02:57:08;4.72;;;4.30;;
23163;SDS011;31429;42.674;23.350;2024-02-04T02:58:09;4.80;;;4.40;;
23163;SDS011;31429;42.674;23.350;2024-02-04T02:59:10;5.47;;;4.47;;
23163;SDS011;31429;42.674;23.350;2024-02-04T03:00:11;6.67;;;4.33;;
23163;SDS011;31429;42.674;23.350;2024-02-04T03:01:13;6.47;;;4.60;;
23163;SDS011;31429;42.674;23.350;2024-02-04T03:02:14;5.57;;;4.67;;
23163;SDS011;31429;42.674;23.350;2024-02-04T03:03:15;5.20;;;4.30;;
23163;SDS011;31429;42.674;23.350;2024-02-04T03:04:15;4.70;;;4.30;;
23163;SDS011;31429;42.674;23.350;2024-02-04T03:05:16;5.50;;;4.60;;
23163;SDS011;31429;42.674;23.350;2024-02-04T03:06:17;5.35;;;4.28;;
23163;SDS011;31429;42.674;23.350;2024-02-04T03:07:18;5.50;;;3.93;;
23163;SDS011;31429;42.674;23.350;2024-02-04T03:08:19;4.77;;;4.13;;
23163;SDS011;31429;42.674;23.350;2024-02-04T03:09:20;4.90;;;4.20;;
23163;SDS011;31429;42.674;23.350;2024-02-04T03:10:21;7.10;;;4.73;;
23163;SDS011;31429;42.674;23.350;2024-02-04T03:11:23;5.00;;;4.03;;
23163;SDS011;31429;42.674;23.350;2024-02-04T03:12:24;5.68;;;4.47;;
23163;SDS011;31429;42.674;23.350;2024-02-04T03:13:24;5.30;;;4.30;;
23163;SDS011;31429;42.674;23.350;2024-02-04T03:14:25;9.03;;;4.50;;
23163;SDS011;31429;42.674;23.350;2024-02-04T03:15:26;4.70;;;4.13;;
23163;SDS011;31429;42.674;23.350;2024-02-04T03:16:27;8.17;;;5.00;;
23163;SDS011;31429;42.674;23.350;2024-02-04T03:17:28;6.50;;;4.67;;
23163;SDS011;31429;42.674;23.350;2024-02-04T03:18:29;6.77;;;4.33;;
23163;SDS011;31429;42.674;23.350;2024-02-04T03:19:29;5.53;;;4.10;;
23163;SDS011;31429;42.674;23.350;2024-02-04T03:20:30;4.73;;;4.33;;
23163;SDS011;31429;42.674;23.350;2024-02-04T03:21:31;5.30;;;4.80;;
23163;SDS011;31429;42.674;23.350;2024-02-04T03:22:32;4.73;;;3.93;;
23163;SDS011;31429;42.674;23.350;2024-02-04T03:23:32;5.50;;;4.23;;
23163;SDS011;31429;42.674;23.350;2024-02-04T03:24:33;5.83;;;3.90;;
23163;SDS011;31429;42.674;23.350;2024-02-04T03:25:34;6.33;;;4.80;;
23163;SDS011;31429;42.674;23.350;2024-02-04T03:26:36;4.63;;;4.23;;
23163;SDS011;31429;42.674;23.350;2024-02-04T03:27:39;5.88;;;4.20;;
23163;SDS011;31429;42.674;23.350;2024-02-04T03:28:40;4.32;;;3.83;;
23163;SDS011;31429;42.674;23.350;2024-02-04T03:29:41;5.80;;;4.17;;
23163;SDS011;31429;42.674;23.350;2024-02-04T03:30:41;5.10;;;4.23;;
23163;SDS011;31429;42.674;23.350;2024-02-04T03:31:42;5.10;;;4.17;;
23163;SDS011;31429;42.674;23.350;2024-02-04T03:32:43;6.20;;;4.43;;
23163;SDS011;31429;42.674;23.350;2024-02-04T03:33:44;4.90;;;4.30;;
23163;SDS011;31429;42.674;23.350;2024-02-04T03:34:44;5.20;;;4.10;;
23163;SDS011;31429;42.674;23.350;2024-02-04T03:35:45;5.23;;;4.63;;
23163;SDS011;31429;42.674;23.350;2024-02-04T03:36:46;5.60;;;4.27;;
23163;SDS011;31429;42.674;23.350;2024-02-04T03:37:47;4.33;;;3.93;;
23163;SDS011;31429;42.674;23.350;2024-02-04T03:38:48;4.20;;;3.57;;
23163;SDS011;31429;42.674;23.350;2024-02-04T03:39:49;4.90;;;3.97;;
23163;SDS011;31429;42.674;23.350;2024-02-04T03:40:50;5.07;;;3.90;;
23163;SDS011;31429;42.674;23.350;2024-02-04T03:41:52;7.13;;;4.70;;
23163;SDS011;31429;42.674;23.350;2024-02-04T03:42:53;4.38;;;3.92;;
23163;SDS011;31429;42.674;23.350;2024-02-04T03:43:53;5.20;;;4.10;;
23163;SDS011;31429;42.674;23.350;2024-02-04T03:44:55;7.15;;;4.22;;
23163;SDS011;31429;42.674;23.350;2024-02-04T03:45:56;4.97;;;3.80;;
23163;SDS011;31429;42.674;23.350;2024-02-04T03:46:57;7.53;;;4.07;;
23163;SDS011;31429;42.674;23.350;2024-02-04T03:47:58;5.23;;;4.00;;
23163;SDS011;31429;42.674;23.350;2024-02-04T03:48:58;5.07;;;4.20;;
23163;SDS011;31429;42.674;23.350;2024-02-04T03:49:59;3.80;;;3.50;;
23163;SDS011;31429;42.674;23.350;2024-02-04T03:51:00;3.83;;;3.50;;
23163;SDS011;31429;42.674;23.350;2024-02-04T03:52:01;5.53;;;4.37;;
23163;SDS011;31429;42.674;23.350;2024-02-04T03:53:02;4.73;;;3.33;;
23163;SDS011;31429;42.674;23.350;2024-02-04T03:54:03;4.65;;;3.80;;
23163;SDS011;31429;42.674;23.350;2024-02-04T03:55:04;5.23;;;3.63;;
23163;SDS011;31429;42.674;23.350;2024-02-04T03:56:06;5.15;;;3.92;;
23163;SDS011;31429;42.674;23.350;2024-02-04T03:57:08;3.60;;;3.30;;
23163;SDS011;31429;42.674;23.350;2024-02-04T03:58:09;4.15;;;3.35;;
23163;SDS011;31429;42.674;23.350;2024-02-04T03:59:09;4.17;;;3.70;;
23163;SDS011;31429;42.674;23.350;2024-02-04T04:00:11;4.50;;;3.85;;
23163;SDS011;31429;42.674;23.350;2024-02-04T04:01:13;3.70;;;3.28;;
23163;SDS011;31429;42.674;23.350;2024-02-04T04:02:13;4.03;;;3.63;;
23163;SDS011;31429;42.674;23.350;2024-02-04T04:03:14;6.47;;;3.83;;
23163;SDS011;31429;42.674;23.350;2024-02-04T04:04:15;3.70;;;3.40;;
23163;SDS011;31429;42.674;23.350;2024-02-04T04:05:16;4.47;;;3.47;;
23163;SDS011;31429;42.674;23.350;2024-02-04T04:06:17;5.80;;;3.73;;
23163;SDS011;31429;42.674;23.350;2024-02-04T04:07:18;3.83;;;3.53;;
23163;SDS011;31429;42.674;23.350;2024-02-04T04:08:19;4.83;;;4.27;;
23163;SDS011;31429;42.674;23.350;2024-02-04T04:09:19;3.63;;;3.33;;
23163;SDS011;31429;42.674;23.350;2024-02-04T04:10:20;6.60;;;3.90;;
23163;SDS011;31429;42.674;23.350;2024-02-04T04:11:21;3.37;;;3.07;;
23163;SDS011;31429;42.674;23.350;2024-02-04T04:12:23;3.90;;;3.60;;
23163;SDS011;31429;42.674;23.350;2024-02-04T04:13:24;5.18;;;3.88;;
23163;SDS011;31429;42.674;23.350;2024-02-04T04:14:25;4.83;;;3.63;;
23163;SDS011;31429;42.674;23.350;2024-02-04T04:15:26;3.87;;;3.50;;
23163;SDS011;31429;42.674;23.350;2024-02-04T04:16:26;4.83;;;3.53;;
23163;SDS011;31429;42.674;23.350;2024-02-04T04:17:27;4.03;;;3.67;;
23163;SDS011;31429;42.674;23.350;2024-02-04T04:18:28;3.90;;;3.50;;
23163;SDS011;31429;42.674;23.350;2024-02-04T04:19:29;3.97;;;3.57;;
23163;SDS011;31429;42.674;23.350;2024-02-04T04:20:30;4.60;;;3.80;;
23163;SDS011;31429;42.674;23.350;2024-02-04T04:21:31;5.00;;;4.07;;
23163;SDS011;31429;42.674;23.350;2024-02-04T04:22:32;4.63;;;3.70;;
23163;SDS011;31429;42.674;23.350;2024-02-04T04:23:32;4.30;;;3.80;;
23163;SDS011;31429;42.674;23.350;2024-02-04T04:24:33;4.27;;;3.87;;
23163;SDS011;31429;42.674;23.350;2024-02-04T04:25:34;3.87;;;3.43;;
23163;SDS011;31429;42.674;23.350;2024-02-04T04:26:35;3.73;;;3.43;;
23163;SDS011;31429;42.674;23.350;2024-02-04T04:27:38;4.40;;;3.70;;
23163;SDS011;31429;42.674;23.350;2024-02-04T04:28:39;4.18;;;3.65;;
23163;SDS011;31429;42.674;23.350;2024-02-04T04:29:40;4.03;;;3.73;;
23163;SDS011;31429;42.674;23.350;2024-02-04T04:30:40;4.73;;;3.60;;
23163;SDS011;31429;42.674;23.350;2024-02-04T04:31:41;4.90;;;3.90;;
23163;SDS011;31429;42.674;23.350;2024-02-04T04:32:42;4.97;;;4.00;;
23163;SDS011;31429;42.674;23.350;2024-02-04T04:33:43;4.53;;;4.00;;
23163;SDS011;31429;42.674;23.350;2024-02-04T04:34:44;4.37;;;3.70;;
23163;SDS011;31429;42.674;23.350;2024-02-04T04:35:45;4.22;;;3.72;;
23163;SDS011;31429;42.674;23.350;2024-02-04T04:36:45;4.40;;;4.00;;
23163;SDS011;31429;42.674;23.350;2024-02-04T04:37:46;4.33;;;3.93;;
23163;SDS011;31429;42.674;23.350;2024-02-04T04:38:47;5.20;;;3.90;;
23163;SDS011;31429;42.674;23.350;2024-02-04T04:39:50;5.32;;;3.78;;
23163;SDS011;31429;42.674;23.350;2024-02-04T04:40:51;3.97;;;3.50;;
23163;SDS011;31429;42.674;23.350;2024-02-04T04:41:52;4.27;;;3.87;;
23163;SDS011;31429;42.674;23.350;2024-02-04T04:42:54;4.57;;;4.17;;
23163;SDS011;31429;42.674;23.350;2024-02-04T04:43:55;4.22;;;3.75;;
23163;SDS011;31429;42.674;23.350;2024-02-04T04:44:55;6.03;;;3.70;;
23163;SDS011;31429;42.674;23.350;2024-02-04T04:45:56;6.73;;;3.60;;
23163;SDS011;31429;42.674;23.350;2024-02-04T04:46:57;4.20;;;3.80;;
23163;SDS011;31429;42.674;23.350;2024-02-04T04:47:58;4.53;;;3.77;;
23163;SDS011;31429;42.674;23.350;2024-02-04T04:48:59;4.17;;;3.77;;
23163;SDS011;31429;42.674;23.350;2024-02-04T04:50:00;3.95;;;3.60;;
23163;SDS011;31429;42.674;23.350;2024-02-04T04:51:01;4.13;;;3.73;;
23163;SDS011;31429;42.674;23.350;2024-02-04T04:52:02;4.17;;;3.73;;
23163;SDS011;31429;42.674;23.350;2024-02-04T04:53:03;5.53;;;3.88;;
23163;SDS011;31429;42.674;23.350;2024-02-04T04:54:04;5.07;;;4.23;;
23163;SDS011;31429;42.674;23.350;2024-02-04T04:55:05;4.03;;;3.63;;
23163;SDS011;31429;42.674;23.350;2024-02-04T04:56:06;4.50;;;3.47;;
23163;SDS011;31429;42.674;23.350;2024-02-04T04:57:07;4.82;;;3.65;;
23163;SDS011;31429;42.674;23.350;2024-02-04T04:58:09;4.17;;;3.73;;
23163;SDS011;31429;42.674;23.350;2024-02-04T04:59:10;3.70;;;3.40;;
23163;SDS011;31429;42.674;23.350;2024-02-04T05:00:11;4.53;;;3.30;;
23163;SDS011;31429;42.674;23.350;2024-02-04T05:01:13;3.15;;;2.92;;
23163;SDS011;31429;42.674;23.350;2024-02-04T05:02:14;4.83;;;3.50;;
23163;SDS011;31429;42.674;23.350;2024-02-04T05:03:15;3.90;;;3.60;;
23163;SDS011;31429;42.674;23.350;2024-02-04T05:04:16;4.87;;;3.70;;
23163;SDS011;31429;42.674;23.350;2024-02-04T05:05:19;4.20;;;3.80;;
23163;SDS011;31429;42.674;23.350;2024-02-04T05:06:20;3.47;;;2.93;;
23163;SDS011;31429;42.674;23.350;2024-02-04T05:07:20;3.50;;;3.20;;
23163;SDS011;31429;42.674;23.350;2024-02-04T05:08:21;5.05;;;3.42;;
23163;SDS011;31429;42.674;23.350;2024-02-04T05:09:22;3.60;;;3.37;;
23163;SDS011;31429;42.674;23.350;2024-02-04T05:10:23;6.30;;;3.50;;
23163;SDS011;31429;42.674;23.350;2024-02-04T05:11:24;3.93;;;3.60;;
23163;SDS011;31429;42.674;23.350;2024-02-04T05:12:25;5.57;;;3.60;;
23163;SDS011;31429;42.674;23.350;2024-02-04T05:13:27;4.00;;;3.70;;
23163;SDS011;31429;42.674;23.350;2024-02-04T05:14:28;4.68;;;3.50;;
23163;SDS011;31429;42.674;23.350;2024-02-04T05:15:28;4.77;;;3.27;;
23163;SDS011;31429;42.674;23.350;2024-02-04T05:16:30;3.95;;;3.58;;
23163;SDS011;31429;42.674;23.350;2024-02-04T05:17:30;3.87;;;3.30;;
23163;SDS011;31429;42.674;23.350;2024-02-04T05:18:32;3.65;;;3.35;;
23163;SDS011;31429;42.674;23.350;2024-02-04T05:19:33;3.60;;;3.37;;
23163;SDS011;31429;42.674;23.350;2024-02-04T05:20:34;3.77;;;3.47;;
23163;SDS011;31429;42.674;23.350;2024-02-04T05:21:37;4.30;;;3.42;;
23163;SDS011;31429;42.674;23.350;2024-02-04T05:22:38;4.13;;;3.63;;
23163;SDS011;31429;42.674;23.350;2024-02-04T05:23:39;3.50;;;3.20;;
23163;SDS011;31429;42.674;23.350;2024-02-04T05:24:40;3.77;;;3.47;;
23163;SDS011;31429;42.674;23.350;2024-02-04T05:25:41;3.85;;;3.25;;
23163;SDS011;31429;42.674;23.350;2024-02-04T05:26:42;3.83;;;3.30;;
23163;SDS011;31429;42.674;23.350;2024-02-04T05:27:43;3.92;;;3.63;;
23163;SDS011;31429;42.674;23.350;2024-02-04T05:28:45;4.13;;;3.83;;
23163;SDS011;31429;42.674;23.350;2024-02-04T05:29:46;4.03;;;3.72;;
23163;SDS011;31429;42.674;23.350;2024-02-04T05:30:47;4.13;;;3.83;;
23163;SDS011;31429;42.674;23.350;2024-02-04T05:31:48;4.30;;;3.70;;
23163;SDS011;31429;42.674;23.350;2024-02-04T05:32:49;4.37;;;3.87;;
23163;SDS011;31429;42.674;23.350;2024-02-04T05:33:51;3.97;;;3.67;;
23163;SDS011;31429;42.674;23.350;2024-02-04T05:34:52;3.78;;;3.47;;
23163;SDS011;31429;42.674;23.350;2024-02-04T05:35:53;3.87;;;3.53;;
23163;SDS011;31429;42.674;23.350;2024-02-04T05:36:53;5.43;;;3.50;;
23163;SDS011;31429;42.674;23.350;2024-02-04T05:37:54;4.27;;;3.87;;
23163;SDS011;31429;42.674;23.350;2024-02-04T05:38:55;3.77;;;3.10;;
23163;SDS011;31429;42.674;23.350;2024-02-04T05:39:56;3.53;;;3.23;;
23163;SDS011;31429;42.674;23.350;2024-02-04T05:40:57;4.30;;;3.90;;
23163;SDS011;31429;42.674;23.350;2024-02-04T05:41:57;4.13;;;3.73;;
23163;SDS011;31429;42.674;23.350;2024-02-04T05:42:58;5.57;;;3.70;;
23163;SDS011;31429;42.674;23.350;2024-02-04T05:44:00;5.43;;;3.73;;
23163;SDS011;31429;42.674;23.350;2024-02-04T05:45:01;4.63;;;3.65;;
23163;SDS011;31429;42.674;23.350;2024-02-04T05:46:02;4.25;;;3.85;;
23163;SDS011;31429;42.674;23.350;2024-02-04T05:47:04;7.90;;;3.92;;
23163;SDS011;31429;42.674;23.350;2024-02-04T05:48:05;4.47;;;3.55;;
23163;SDS011;31429;42.674;23.350;2024-02-04T05:49:06;4.13;;;3.75;;
23163;SDS011;31429;42.674;23.350;2024-02-04T05:50:07;3.95;;;3.55;;
23163;SDS011;31429;42.674;23.350;2024-02-04T05:51:08;4.15;;;3.85;;
23163;SDS011;31429;42.674;23.350;2024-02-04T05:52:09;4.50;;;3.57;;
23163;SDS011;31429;42.674;23.350;2024-02-04T05:53:10;4.60;;;3.87;;
23163;SDS011;31429;42.674;23.350;2024-02-04T05:54:11;4.20;;;3.80;;
23163;SDS011;31429;42.674;23.350;2024-02-04T05:55:12;4.57;;;3.80;;
23163;SDS011;31429;42.674;23.350;2024-02-04T05:56:13;4.50;;;3.80;;
23163;SDS011;31429;42.674;23.350;2024-02-04T05:57:13;4.97;;;3.90;;
23163;SDS011;31429;42.674;23.350;2024-02-04T05:58:14;4.53;;;3.77;;
23163;SDS011;31429;42.674;23.350;2024-02-04T05:59:16;5.37;;;4.23;;
23163;SDS011;31429;42.674;23.350;2024-02-04T06:00:17;4.25;;;3.80;;
23163;SDS011;31429;42.674;23.350;2024-02-04T06:01:19;4.82;;;4.18;;
23163;SDS011;31429;42.674;23.350;2024-02-04T06:02:19;4.60;;;4.20;;
23163;SDS011;31429;42.674;23.350;2024-02-04T06:03:20;5.90;;;4.03;;
23163;SDS011;31429;42.674;23.350;2024-02-04T06:04:21;4.50;;;4.10;;